sensor_id;sensor_type;location;lat;lon;timestamp;temperature;humidity
8253;DHT22;61313;48.396;10.008;2022-08-03T00:01:55;22.90;99.90
8253;DHT22;61313;48.396;10.008;2022-08-03T00:04:20;22.90;99.90
8253;DHT22;61313;48.396;10.008;2022-08-03T00:06:46;22.80;99.90
8253;DHT22;61313;48.396;10.008;2022-08-03T00:09:12;22.80;99.90
8253;DHT22;61313;48.396;10.008;2022-08-03T00:11:38;22.90;99.90
8253;DHT22;61313;48.396;10.008;2022-08-03T00:14:04;22.90;99.90
8253;DHT22;61313;48.396;10.008;2022-08-03T00:16:30;22.90;99.90
8253;DHT22;61313;48.396;10.008;2022-08-03T00:18:56;23.00;99.90
8253;DHT22;61313;48.396;10.008;2022-08-03T00:21:21;23.00;99.90
8253;DHT22;61313;48.396;10.008;2022-08-03T00:23:47;23.00;99.90
8253;DHT22;61313;48.396;10.008;2022-08-03T00:26:13;23.00;99.90
8253;DHT22;61313;48.396;10.008;2022-08-03T00:28:39;23.00;99.90
8253;DHT22;61313;48.396;10.008;2022-08-03T00:31:06;22.90;99.90
8253;DHT22;61313;48.396;10.008;2022-08-03T00:33:32;22.90;99.90
8253;DHT22;61313;48.396;10.008;2022-08-03T00:35:58;22.80;99.90
8253;DHT22;61313;48.396;10.008;2022-08-03T00:38:23;22.90;99.90
8253;DHT22;61313;48.396;10.008;2022-08-03T00:40:49;22.80;99.90
8253;DHT22;61313;48.396;10.008;2022-08-03T00:43:15;22.70;99.90
8253;DHT22;61313;48.396;10.008;2022-08-03T00:45:42;22.70;99.90
8253;DHT22;61313;48.396;10.008;2022-08-03T00:48:09;22.60;99.90
8253;DHT22;61313;48.396;10.008;2022-08-03T00:50:41;22.60;99.90
8253;DHT22;61313;48.396;10.008;2022-08-03T00:53:09;22.60;99.90
8253;DHT22;61313;48.396;10.008;2022-08-03T00:55:36;22.60;99.90
8253;DHT22;61313;48.396;10.008;2022-08-03T00:58:03;22.70;99.90
8253;DHT22;61313;48.396;10.008;2022-08-03T01:00:33;22.70;99.90
8253;DHT22;61313;48.396;10.008;2022-08-03T01:03:01;22.70;99.90
8253;DHT22;61313;48.396;10.008;2022-08-03T01:05:28;22.80;99.90
8253;DHT22;61313;48.396;10.008;2022-08-03T01:08:22;22.70;99.90
8253;DHT22;61313;48.396;10.008;2022-08-03T01:16:57;22.50;99.90
8253;DHT22;61313;48.396;10.008;2022-08-03T01:22:14;22.60;99.90
8253;DHT22;61313;48.396;10.008;2022-08-03T01:25:02;22.50;99.90
8253;DHT22;61313;48.396;10.008;2022-08-03T01:27:36;22.40;99.90
8253;DHT22;61313;48.396;10.008;2022-08-03T01:30:07;22.40;99.90
8253;DHT22;61313;48.396;10.008;2022-08-03T01:32:38;22.50;99.90
8253;DHT22;61313;48.396;10.008;2022-08-03T01:35:10;22.40;99.90
8253;DHT22;61313;48.396;10.008;2022-08-03T01:37:44;22.40;99.90
8253;DHT22;61313;48.396;10.008;2022-08-03T01:40:13;22.40;99.90
8253;DHT22;61313;48.396;10.008;2022-08-03T01:42:40;22.30;99.90
8253;DHT22;61313;48.396;10.008;2022-08-03T01:45:09;22.30;99.90
8253;DHT22;61313;48.396;10.008;2022-08-03T01:47:37;22.30;99.90
8253;DHT22;61313;48.396;10.008;2022-08-03T01:50:04;22.30;99.90
8253;DHT22;61313;48.396;10.008;2022-08-03T01:52:31;22.20;99.90
8253;DHT22;61313;48.396;10.008;2022-08-03T01:54:58;22.10;99.90
8253;DHT22;61313;48.396;10.008;2022-08-03T01:57:27;22.10;99.90
8253;DHT22;61313;48.396;10.008;2022-08-03T01:59:55;22.10;99.90
8253;DHT22;61313;48.396;10.008;2022-08-03T02:02:21;22.00;99.90
8253;DHT22;61313;48.396;10.008;2022-08-03T02:04:49;22.00;99.90
8253;DHT22;61313;48.396;10.008;2022-08-03T02:07:17;21.90;99.90
8253;DHT22;61313;48.396;10.008;2022-08-03T02:09:45;21.80;99.90
8253;DHT22;61313;48.396;10.008;2022-08-03T02:12:13;21.80;99.90
8253;DHT22;61313;48.396;10.008;2022-08-03T02:14:42;21.60;99.90
8253;DHT22;61313;48.396;10.008;2022-08-03T02:17:08;21.70;99.90
8253;DHT22;61313;48.396;10.008;2022-08-03T02:19:35;21.80;99.90
8253;DHT22;61313;48.396;10.008;2022-08-03T02:22:04;21.70;99.90
8253;DHT22;61313;48.396;10.008;2022-08-03T02:24:30;21.70;99.90
8253;DHT22;61313;48.396;10.008;2022-08-03T02:26:56;21.70;99.90
8253;DHT22;61313;48.396;10.008;2022-08-03T02:29:24;21.80;99.90
8253;DHT22;61313;48.396;10.008;2022-08-03T02:31:51;21.90;99.90
8253;DHT22;61313;48.396;10.008;2022-08-03T02:34:20;22.00;99.90
8253;DHT22;61313;48.396;10.008;2022-08-03T02:36:49;21.90;99.90
8253;DHT22;61313;48.396;10.008;2022-08-03T02:39:19;22.00;99.90
8253;DHT22;61313;48.396;10.008;2022-08-03T02:41:54;21.90;99.90
8253;DHT22;61313;48.396;10.008;2022-08-03T02:44:27;21.90;99.90
8253;DHT22;61313;48.396;10.008;2022-08-03T02:47:00;21.90;99.90
8253;DHT22;61313;48.396;10.008;2022-08-03T02:49:27;21.80;99.90
8253;DHT22;61313;48.396;10.008;2022-08-03T02:51:54;21.90;99.90
8253;DHT22;61313;48.396;10.008;2022-08-03T02:54:22;21.80;99.90
8253;DHT22;61313;48.396;10.008;2022-08-03T02:56:49;21.80;99.90
8253;DHT22;61313;48.396;10.008;2022-08-03T02:59:17;21.70;99.90
8253;DHT22;61313;48.396;10.008;2022-08-03T03:01:44;21.70;99.90
8253;DHT22;61313;48.396;10.008;2022-08-03T03:04:11;21.70;99.90
8253;DHT22;61313;48.396;10.008;2022-08-03T03:06:38;21.80;99.90
8253;DHT22;61313;48.396;10.008;2022-08-03T03:09:04;21.70;99.90
8253;DHT22;61313;48.396;10.008;2022-08-03T03:11:30;21.70;99.90
8253;DHT22;61313;48.396;10.008;2022-08-03T03:13:57;21.80;99.90
8253;DHT22;61313;48.396;10.008;2022-08-03T03:16:25;21.80;99.90
8253;DHT22;61313;48.396;10.008;2022-08-03T03:18:56;21.90;99.90
8253;DHT22;61313;48.396;10.008;2022-08-03T03:21:22;21.80;99.90
8253;DHT22;61313;48.396;10.008;2022-08-03T03:23:48;21.80;99.90
8253;DHT22;61313;48.396;10.008;2022-08-03T03:26:15;21.60;99.90
8253;DHT22;61313;48.396;10.008;2022-08-03T03:28:41;21.50;99.90
8253;DHT22;61313;48.396;10.008;2022-08-03T03:31:10;21.50;99.90
8253;DHT22;61313;48.396;10.008;2022-08-03T03:33:37;21.40;99.90
8253;DHT22;61313;48.396;10.008;2022-08-03T03:36:04;21.40;99.90
8253;DHT22;61313;48.396;10.008;2022-08-03T03:38:31;21.40;99.90
8253;DHT22;61313;48.396;10.008;2022-08-03T03:40:57;21.60;99.90
8253;DHT22;61313;48.396;10.008;2022-08-03T03:43:23;21.60;99.90
8253;DHT22;61313;48.396;10.008;2022-08-03T03:45:49;21.50;99.90
8253;DHT22;61313;48.396;10.008;2022-08-03T03:48:18;21.60;99.90
8253;DHT22;61313;48.396;10.008;2022-08-03T03:50:44;21.60;99.90
8253;DHT22;61313;48.396;10.008;2022-08-03T03:53:11;21.60;99.90
8253;DHT22;61313;48.396;10.008;2022-08-03T03:55:38;21.50;99.90
8253;DHT22;61313;48.396;10.008;2022-08-03T03:58:05;21.50;99.90
8253;DHT22;61313;48.396;10.008;2022-08-03T04:00:31;21.60;99.90
8253;DHT22;61313;48.396;10.008;2022-08-03T04:02:57;21.50;99.90
8253;DHT22;61313;48.396;10.008;2022-08-03T04:05:22;21.40;99.90
8253;DHT22;61313;48.396;10.008;2022-08-03T04:08:09;21.40;99.90
8253;DHT22;61313;48.396;10.008;2022-08-03T04:16:29;21.30;99.90
8253;DHT22;61313;48.396;10.008;2022-08-03T04:19:00;21.30;99.90
8253;DHT22;61313;48.396;10.008;2022-08-03T04:21:28;21.30;99.90
8253;DHT22;61313;48.396;10.008;2022-08-03T04:24:00;21.30;99.90
8253;DHT22;61313;48.396;10.008;2022-08-03T04:26:30;21.40;99.90
8253;DHT22;61313;48.396;10.008;2022-08-03T04:28:59;21.50;99.90
8253;DHT22;61313;48.396;10.008;2022-08-03T04:31:26;21.50;99.90
8253;DHT22;61313;48.396;10.008;2022-08-03T04:33:54;21.50;99.90
8253;DHT22;61313;48.396;10.008;2022-08-03T04:36:22;21.40;99.90
8253;DHT22;61313;48.396;10.008;2022-08-03T04:39:01;21.50;99.90
8253;DHT22;61313;48.396;10.008;2022-08-03T04:41:28;21.70;99.90
8253;DHT22;61313;48.396;10.008;2022-08-03T04:43:57;21.60;99.90
8253;DHT22;61313;48.396;10.008;2022-08-03T04:46:26;21.80;99.90
8253;DHT22;61313;48.396;10.008;2022-08-03T04:48:52;21.90;99.90
8253;DHT22;61313;48.396;10.008;2022-08-03T04:51:18;22.00;99.90
8253;DHT22;61313;48.396;10.008;2022-08-03T04:53:44;22.30;99.90
8253;DHT22;61313;48.396;10.008;2022-08-03T04:56:10;22.70;99.90
8253;DHT22;61313;48.396;10.008;2022-08-03T04:58:36;23.10;99.90
8253;DHT22;61313;48.396;10.008;2022-08-03T05:01:02;23.30;99.90
8253;DHT22;61313;48.396;10.008;2022-08-03T05:03:27;23.60;99.90
8253;DHT22;61313;48.396;10.008;2022-08-03T05:05:54;23.60;99.90
8253;DHT22;61313;48.396;10.008;2022-08-03T05:08:20;23.80;99.90
8253;DHT22;61313;48.396;10.008;2022-08-03T05:10:46;23.80;99.90
8253;DHT22;61313;48.396;10.008;2022-08-03T05:13:12;24.00;99.90
8253;DHT22;61313;48.396;10.008;2022-08-03T05:15:39;24.10;99.90
8253;DHT22;61313;48.396;10.008;2022-08-03T05:18:05;24.20;99.90
8253;DHT22;61313;48.396;10.008;2022-08-03T05:20:31;24.30;99.90
8253;DHT22;61313;48.396;10.008;2022-08-03T05:22:57;24.40;99.90
8253;DHT22;61313;48.396;10.008;2022-08-03T05:25:28;24.50;99.90
8253;DHT22;61313;48.396;10.008;2022-08-03T05:27:54;24.40;99.90
8253;DHT22;61313;48.396;10.008;2022-08-03T05:30:20;24.50;99.90
8253;DHT22;61313;48.396;10.008;2022-08-03T05:32:45;24.70;99.90
8253;DHT22;61313;48.396;10.008;2022-08-03T05:35:11;24.50;99.90
8253;DHT22;61313;48.396;10.008;2022-08-03T05:37:37;24.60;99.90
8253;DHT22;61313;48.396;10.008;2022-08-03T05:40:03;24.50;99.90
8253;DHT22;61313;48.396;10.008;2022-08-03T05:42:29;24.30;99.90
8253;DHT22;61313;48.396;10.008;2022-08-03T05:44:55;24.70;99.90
8253;DHT22;61313;48.396;10.008;2022-08-03T05:47:21;25.00;99.90
8253;DHT22;61313;48.396;10.008;2022-08-03T05:49:47;25.00;99.90
8253;DHT22;61313;48.396;10.008;2022-08-03T05:52:13;25.30;99.90
8253;DHT22;61313;48.396;10.008;2022-08-03T05:54:38;25.10;99.90
8253;DHT22;61313;48.396;10.008;2022-08-03T05:57:04;25.00;99.90
8253;DHT22;61313;48.396;10.008;2022-08-03T05:59:30;24.70;99.90
8253;DHT22;61313;48.396;10.008;2022-08-03T06:01:55;24.60;99.90
8253;DHT22;61313;48.396;10.008;2022-08-03T06:04:21;24.40;99.90
8253;DHT22;61313;48.396;10.008;2022-08-03T06:06:47;24.50;99.90
8253;DHT22;61313;48.396;10.008;2022-08-03T06:09:15;24.60;99.90
8253;DHT22;61313;48.396;10.008;2022-08-03T06:11:41;24.10;99.90
8253;DHT22;61313;48.396;10.008;2022-08-03T06:14:11;24.10;99.90
8253;DHT22;61313;48.396;10.008;2022-08-03T06:16:37;24.40;99.90
8253;DHT22;61313;48.396;10.008;2022-08-03T06:19:02;24.50;99.90
8253;DHT22;61313;48.396;10.008;2022-08-03T06:21:28;25.20;99.90
8253;DHT22;61313;48.396;10.008;2022-08-03T06:23:54;24.90;99.90
8253;DHT22;61313;48.396;10.008;2022-08-03T06:26:20;24.60;99.90
8253;DHT22;61313;48.396;10.008;2022-08-03T06:28:46;25.10;99.90
8253;DHT22;61313;48.396;10.008;2022-08-03T06:31:11;25.10;99.90
8253;DHT22;61313;48.396;10.008;2022-08-03T06:33:37;25.40;99.90
8253;DHT22;61313;48.396;10.008;2022-08-03T06:36:03;25.60;99.90
8253;DHT22;61313;48.396;10.008;2022-08-03T06:38:29;25.30;99.90
8253;DHT22;61313;48.396;10.008;2022-08-03T06:40:55;25.10;99.90
8253;DHT22;61313;48.396;10.008;2022-08-03T06:43:20;25.10;99.90
8253;DHT22;61313;48.396;10.008;2022-08-03T06:45:46;25.30;99.90
8253;DHT22;61313;48.396;10.008;2022-08-03T06:48:12;25.70;99.90
8253;DHT22;61313;48.396;10.008;2022-08-03T06:50:39;25.60;99.90
8253;DHT22;61313;48.396;10.008;2022-08-03T06:53:06;25.80;99.90
8253;DHT22;61313;48.396;10.008;2022-08-03T06:55:33;26.10;99.90
8253;DHT22;61313;48.396;10.008;2022-08-03T06:57:59;26.40;99.90
8253;DHT22;61313;48.396;10.008;2022-08-03T07:00:25;26.00;99.90
8253;DHT22;61313;48.396;10.008;2022-08-03T07:02:52;26.30;99.90
8253;DHT22;61313;48.396;10.008;2022-08-03T07:05:18;26.70;99.90
8253;DHT22;61313;48.396;10.008;2022-08-03T07:07:44;26.30;99.90
8253;DHT22;61313;48.396;10.008;2022-08-03T07:10:10;26.10;99.90
8253;DHT22;61313;48.396;10.008;2022-08-03T07:12:37;26.50;99.90
8253;DHT22;61313;48.396;10.008;2022-08-03T07:15:04;26.40;99.90
8253;DHT22;61313;48.396;10.008;2022-08-03T07:17:31;26.20;99.90
8253;DHT22;61313;48.396;10.008;2022-08-03T07:19:57;26.20;99.90
8253;DHT22;61313;48.396;10.008;2022-08-03T07:22:23;26.90;99.90
8253;DHT22;61313;48.396;10.008;2022-08-03T07:24:49;27.40;99.90
8253;DHT22;61313;48.396;10.008;2022-08-03T07:27:15;26.70;99.90
8253;DHT22;61313;48.396;10.008;2022-08-03T07:29:41;27.00;99.90
8253;DHT22;61313;48.396;10.008;2022-08-03T07:32:07;27.70;99.90
8253;DHT22;61313;48.396;10.008;2022-08-03T07:34:33;28.20;99.90
8253;DHT22;61313;48.396;10.008;2022-08-03T07:36:58;28.10;99.90
8253;DHT22;61313;48.396;10.008;2022-08-03T07:39:24;27.90;99.90
8253;DHT22;61313;48.396;10.008;2022-08-03T07:41:50;28.10;99.90
8253;DHT22;61313;48.396;10.008;2022-08-03T07:44:17;27.60;99.90
8253;DHT22;61313;48.396;10.008;2022-08-03T07:46:43;27.40;99.90
8253;DHT22;61313;48.396;10.008;2022-08-03T07:49:08;28.00;99.90
8253;DHT22;61313;48.396;10.008;2022-08-03T07:51:34;28.10;99.90
8253;DHT22;61313;48.396;10.008;2022-08-03T07:54:00;27.80;99.90
8253;DHT22;61313;48.396;10.008;2022-08-03T07:56:26;27.90;99.90
8253;DHT22;61313;48.396;10.008;2022-08-03T07:58:53;27.90;99.90
8253;DHT22;61313;48.396;10.008;2022-08-03T08:01:19;28.20;99.90
8253;DHT22;61313;48.396;10.008;2022-08-03T08:03:45;28.40;99.90
8253;DHT22;61313;48.396;10.008;2022-08-03T08:06:11;28.60;99.90
8253;DHT22;61313;48.396;10.008;2022-08-03T08:08:38;28.50;99.90
8253;DHT22;61313;48.396;10.008;2022-08-03T08:11:04;28.20;99.90
8253;DHT22;61313;48.396;10.008;2022-08-03T08:13:30;28.30;99.90
8253;DHT22;61313;48.396;10.008;2022-08-03T08:15:55;28.90;99.90
8253;DHT22;61313;48.396;10.008;2022-08-03T08:18:21;29.10;99.90
8253;DHT22;61313;48.396;10.008;2022-08-03T08:20:49;28.40;99.90
8253;DHT22;61313;48.396;10.008;2022-08-03T08:23:15;28.20;99.90
8253;DHT22;61313;48.396;10.008;2022-08-03T08:25:47;28.70;99.90
8253;DHT22;61313;48.396;10.008;2022-08-03T08:28:13;28.40;99.90
8253;DHT22;61313;48.396;10.008;2022-08-03T08:30:39;28.30;99.90
8253;DHT22;61313;48.396;10.008;2022-08-03T08:33:04;28.80;99.90
8253;DHT22;61313;48.396;10.008;2022-08-03T08:35:30;28.30;99.90
8253;DHT22;61313;48.396;10.008;2022-08-03T08:37:59;27.90;99.90
8253;DHT22;61313;48.396;10.008;2022-08-03T08:40:26;28.00;99.90
8253;DHT22;61313;48.396;10.008;2022-08-03T08:42:52;28.50;99.90
8253;DHT22;61313;48.396;10.008;2022-08-03T08:45:18;28.70;99.90
8253;DHT22;61313;48.396;10.008;2022-08-03T08:47:46;28.40;99.90
8253;DHT22;61313;48.396;10.008;2022-08-03T08:50:13;28.70;99.90
8253;DHT22;61313;48.396;10.008;2022-08-03T08:52:42;29.00;99.90
8253;DHT22;61313;48.396;10.008;2022-08-03T08:55:13;29.30;99.90
8253;DHT22;61313;48.396;10.008;2022-08-03T08:57:50;28.90;99.90
8253;DHT22;61313;48.396;10.008;2022-08-03T09:00:17;28.30;99.90
8253;DHT22;61313;48.396;10.008;2022-08-03T09:02:44;28.30;99.90
8253;DHT22;61313;48.396;10.008;2022-08-03T09:07:48;28.70;99.90
8253;DHT22;61313;48.396;10.008;2022-08-03T09:10:16;28.90;99.90
8253;DHT22;61313;48.396;10.008;2022-08-03T09:12:51;28.70;99.90
8253;DHT22;61313;48.396;10.008;2022-08-03T09:15:31;28.50;99.90
8253;DHT22;61313;48.396;10.008;2022-08-03T09:17:59;28.20;99.90
8253;DHT22;61313;48.396;10.008;2022-08-03T09:20:29;28.80;99.90
8253;DHT22;61313;48.396;10.008;2022-08-03T09:23:06;28.90;99.90
8253;DHT22;61313;48.396;10.008;2022-08-03T09:25:36;28.60;99.90
8253;DHT22;61313;48.396;10.008;2022-08-03T09:30:40;28.90;99.90
8253;DHT22;61313;48.396;10.008;2022-08-03T09:33:11;29.30;99.90
8253;DHT22;61313;48.396;10.008;2022-08-03T09:35:55;29.60;99.90
8253;DHT22;61313;48.396;10.008;2022-08-03T09:38:22;30.00;99.90
8253;DHT22;61313;48.396;10.008;2022-08-03T09:40:49;29.80;99.90
8253;DHT22;61313;48.396;10.008;2022-08-03T09:43:15;29.50;99.90
8253;DHT22;61313;48.396;10.008;2022-08-03T09:45:42;29.60;99.90
8253;DHT22;61313;48.396;10.008;2022-08-03T09:48:28;29.30;99.90
8253;DHT22;61313;48.396;10.008;2022-08-03T09:50:58;29.00;99.90
8253;DHT22;61313;48.396;10.008;2022-08-03T09:53:24;29.00;99.90
8253;DHT22;61313;48.396;10.008;2022-08-03T09:56:00;29.20;99.90
8253;DHT22;61313;48.396;10.008;2022-08-03T09:58:28;29.30;99.90
8253;DHT22;61313;48.396;10.008;2022-08-03T10:01:03;29.40;99.90
8253;DHT22;61313;48.396;10.008;2022-08-03T10:03:31;29.50;99.90
8253;DHT22;61313;48.396;10.008;2022-08-03T10:05:57;29.30;98.50
8253;DHT22;61313;48.396;10.008;2022-08-03T10:08:23;29.60;98.20
8253;DHT22;61313;48.396;10.008;2022-08-03T10:10:51;29.80;98.40
8253;DHT22;61313;48.396;10.008;2022-08-03T10:13:21;30.00;97.40
8253;DHT22;61313;48.396;10.008;2022-08-03T10:15:47;29.50;92.50
8253;DHT22;61313;48.396;10.008;2022-08-03T10:18:14;29.30;91.30
8253;DHT22;61313;48.396;10.008;2022-08-03T10:20:48;29.20;90.70
8253;DHT22;61313;48.396;10.008;2022-08-03T10:23:16;29.30;86.70
8253;DHT22;61313;48.396;10.008;2022-08-03T10:25:43;29.70;83.90
8253;DHT22;61313;48.396;10.008;2022-08-03T10:28:15;29.90;78.50
8253;DHT22;61313;48.396;10.008;2022-08-03T10:30:43;30.00;74.40
8253;DHT22;61313;48.396;10.008;2022-08-03T10:33:19;29.90;68.50
8253;DHT22;61313;48.396;10.008;2022-08-03T10:35:48;29.90;66.80
8253;DHT22;61313;48.396;10.008;2022-08-03T10:38:28;29.60;63.00
8253;DHT22;61313;48.396;10.008;2022-08-03T10:40:55;29.70;79.20
8253;DHT22;61313;48.396;10.008;2022-08-03T10:43:26;29.70;53.30
8253;DHT22;61313;48.396;10.008;2022-08-03T10:45:53;29.60;49.10
8253;DHT22;61313;48.396;10.008;2022-08-03T10:48:20;29.30;47.50
8253;DHT22;61313;48.396;10.008;2022-08-03T10:50:48;29.60;48.10
8253;DHT22;61313;48.396;10.008;2022-08-03T10:53:14;29.80;46.10
8253;DHT22;61313;48.396;10.008;2022-08-03T10:55:45;29.70;44.70
8253;DHT22;61313;48.396;10.008;2022-08-03T10:58:51;29.60;42.30
8253;DHT22;61313;48.396;10.008;2022-08-03T11:01:18;29.60;40.40
8253;DHT22;61313;48.396;10.008;2022-08-03T11:06:21;29.90;37.00
8253;DHT22;61313;48.396;10.008;2022-08-03T11:11:37;29.90;33.60
8253;DHT22;61313;48.396;10.008;2022-08-03T11:14:06;30.00;31.00
8253;DHT22;61313;48.396;10.008;2022-08-03T11:16:41;30.30;30.00
8253;DHT22;61313;48.396;10.008;2022-08-03T11:19:09;30.10;26.70
8253;DHT22;61313;48.396;10.008;2022-08-03T11:32:53;29.90;22.40
8253;DHT22;61313;48.396;10.008;2022-08-03T11:43:00;30.40;20.40
8253;DHT22;61313;48.396;10.008;2022-08-03T11:45:26;30.50;19.20
8253;DHT22;61313;48.396;10.008;2022-08-03T11:47:54;30.30;18.20
8253;DHT22;61313;48.396;10.008;2022-08-03T11:50:20;30.10;15.30
8253;DHT22;61313;48.396;10.008;2022-08-03T11:52:47;30.00;15.50
8253;DHT22;61313;48.396;10.008;2022-08-03T11:55:17;30.20;15.90
8253;DHT22;61313;48.396;10.008;2022-08-03T11:57:44;30.30;14.90
8253;DHT22;61313;48.396;10.008;2022-08-03T12:00:22;30.40;14.20
8253;DHT22;61313;48.396;10.008;2022-08-03T12:03:07;30.20;13.00
8253;DHT22;61313;48.396;10.008;2022-08-03T12:05:40;30.20;12.80
8253;DHT22;61313;48.396;10.008;2022-08-03T12:08:08;30.20;12.00
8253;DHT22;61313;48.396;10.008;2022-08-03T12:10:35;30.30;11.20
8253;DHT22;61313;48.396;10.008;2022-08-03T12:13:03;30.50;11.20
8253;DHT22;61313;48.396;10.008;2022-08-03T12:15:33;30.70;9.90
8253;DHT22;61313;48.396;10.008;2022-08-03T12:18:07;30.60;9.90
8253;DHT22;61313;48.396;10.008;2022-08-03T12:20:36;30.40;9.10
8253;DHT22;61313;48.396;10.008;2022-08-03T12:23:04;30.30;8.90
8253;DHT22;61313;48.396;10.008;2022-08-03T12:25:31;30.30;9.20
8253;DHT22;61313;48.396;10.008;2022-08-03T12:28:12;30.40;9.90
8253;DHT22;61313;48.396;10.008;2022-08-03T12:30:41;30.30;8.70
8253;DHT22;61313;48.396;10.008;2022-08-03T12:33:20;30.30;8.90
8253;DHT22;61313;48.396;10.008;2022-08-03T12:35:48;30.40;9.40
8253;DHT22;61313;48.396;10.008;2022-08-03T12:38:21;30.40;9.50
8253;DHT22;61313;48.396;10.008;2022-08-03T12:41:10;30.20;6.80
8253;DHT22;61313;48.396;10.008;2022-08-03T12:43:50;30.00;6.40
8253;DHT22;61313;48.396;10.008;2022-08-03T12:46:17;29.90;6.70
8253;DHT22;61313;48.396;10.008;2022-08-03T12:51:31;30.20;17.20
8253;DHT22;61313;48.396;10.008;2022-08-03T12:53:57;30.00;7.30
8253;DHT22;61313;48.396;10.008;2022-08-03T12:56:23;30.10;6.90
8253;DHT22;61313;48.396;10.008;2022-08-03T12:58:49;30.20;6.90
8253;DHT22;61313;48.396;10.008;2022-08-03T13:01:15;30.50;7.60
8253;DHT22;61313;48.396;10.008;2022-08-03T13:03:43;30.40;6.90
8253;DHT22;61313;48.396;10.008;2022-08-03T13:06:15;30.50;7.20
8253;DHT22;61313;48.396;10.008;2022-08-03T13:08:42;30.50;7.00
8253;DHT22;61313;48.396;10.008;2022-08-03T13:11:25;30.60;7.10
8253;DHT22;61313;48.396;10.008;2022-08-03T13:13:52;30.60;16.40
8253;DHT22;61313;48.396;10.008;2022-08-03T13:16:19;30.60;6.30
8253;DHT22;61313;48.396;10.008;2022-08-03T13:18:47;30.50;5.40
8253;DHT22;61313;48.396;10.008;2022-08-03T13:21:14;30.50;5.00
8253;DHT22;61313;48.396;10.008;2022-08-03T13:23:41;30.60;4.80
8253;DHT22;61313;48.396;10.008;2022-08-03T13:26:08;30.40;3.80
8253;DHT22;61313;48.396;10.008;2022-08-03T13:28:34;30.40;4.40
8253;DHT22;61313;48.396;10.008;2022-08-03T13:31:00;30.40;4.20
8253;DHT22;61313;48.396;10.008;2022-08-03T13:33:26;30.70;4.40
8253;DHT22;61313;48.396;10.008;2022-08-03T13:35:53;30.80;4.20
8253;DHT22;61313;48.396;10.008;2022-08-03T13:38:19;30.80;3.80
8253;DHT22;61313;48.396;10.008;2022-08-03T13:40:45;30.90;2.70
8253;DHT22;61313;48.396;10.008;2022-08-03T13:43:11;30.90;2.20
8253;DHT22;61313;48.396;10.008;2022-08-03T13:45:37;30.80;2.00
8253;DHT22;61313;48.396;10.008;2022-08-03T13:48:03;30.70;1.00
8253;DHT22;61313;48.396;10.008;2022-08-03T13:50:29;30.80;1.00
8253;DHT22;61313;48.396;10.008;2022-08-03T13:52:56;30.80;1.10
8253;DHT22;61313;48.396;10.008;2022-08-03T13:55:22;30.90;1.90
8253;DHT22;61313;48.396;10.008;2022-08-03T13:57:48;30.90;1.50
8253;DHT22;61313;48.396;10.008;2022-08-03T14:00:15;30.90;2.10
8253;DHT22;61313;48.396;10.008;2022-08-03T14:02:41;31.00;2.20
8253;DHT22;61313;48.396;10.008;2022-08-03T14:05:07;31.10;1.90
8253;DHT22;61313;48.396;10.008;2022-08-03T14:07:32;31.00;1.30
8253;DHT22;61313;48.396;10.008;2022-08-03T14:09:58;30.90;1.10
8253;DHT22;61313;48.396;10.008;2022-08-03T14:12:26;30.80;1.00
8253;DHT22;61313;48.396;10.008;2022-08-03T14:14:52;30.90;1.00
8253;DHT22;61313;48.396;10.008;2022-08-03T14:17:17;30.80;1.00
8253;DHT22;61313;48.396;10.008;2022-08-03T14:19:43;30.90;2.10
8253;DHT22;61313;48.396;10.008;2022-08-03T14:22:09;31.00;2.20
8253;DHT22;61313;48.396;10.008;2022-08-03T14:24:35;31.10;2.10
8253;DHT22;61313;48.396;10.008;2022-08-03T14:27:00;31.20;1.70
8253;DHT22;61313;48.396;10.008;2022-08-03T14:29:26;31.30;1.70
8253;DHT22;61313;48.396;10.008;2022-08-03T14:31:52;31.10;1.00
8253;DHT22;61313;48.396;10.008;2022-08-03T14:34:18;31.10;1.00
8253;DHT22;61313;48.396;10.008;2022-08-03T14:36:43;31.00;1.30
8253;DHT22;61313;48.396;10.008;2022-08-03T14:39:12;31.10;1.00
8253;DHT22;61313;48.396;10.008;2022-08-03T14:41:37;31.00;1.00
8253;DHT22;61313;48.396;10.008;2022-08-03T14:44:03;30.90;1.00
8253;DHT22;61313;48.396;10.008;2022-08-03T14:46:30;30.90;1.00
8253;DHT22;61313;48.396;10.008;2022-08-03T14:48:56;31.00;1.00
8253;DHT22;61313;48.396;10.008;2022-08-03T14:51:23;31.20;1.00
8253;DHT22;61313;48.396;10.008;2022-08-03T14:53:48;31.30;1.00
8253;DHT22;61313;48.396;10.008;2022-08-03T14:56:14;31.40;1.00
8253;DHT22;61313;48.396;10.008;2022-08-03T14:58:40;31.40;1.00
8253;DHT22;61313;48.396;10.008;2022-08-03T15:01:06;31.30;1.00
8253;DHT22;61313;48.396;10.008;2022-08-03T15:03:32;31.30;1.00
8253;DHT22;61313;48.396;10.008;2022-08-03T15:05:58;31.30;1.00
8253;DHT22;61313;48.396;10.008;2022-08-03T15:08:24;31.30;1.00
8253;DHT22;61313;48.396;10.008;2022-08-03T15:10:51;31.10;1.00
8253;DHT22;61313;48.396;10.008;2022-08-03T15:13:17;31.20;1.00
8253;DHT22;61313;48.396;10.008;2022-08-03T15:15:44;31.10;1.00
8253;DHT22;61313;48.396;10.008;2022-08-03T15:18:10;31.20;1.00
8253;DHT22;61313;48.396;10.008;2022-08-03T15:20:36;31.20;1.00
8253;DHT22;61313;48.396;10.008;2022-08-03T15:23:02;31.00;1.00
8253;DHT22;61313;48.396;10.008;2022-08-03T15:25:28;31.10;1.00
8253;DHT22;61313;48.396;10.008;2022-08-03T15:27:54;31.40;1.00
8253;DHT22;61313;48.396;10.008;2022-08-03T15:30:19;31.40;1.00
8253;DHT22;61313;48.396;10.008;2022-08-03T15:32:45;31.50;1.00
8253;DHT22;61313;48.396;10.008;2022-08-03T15:35:11;31.40;1.00
8253;DHT22;61313;48.396;10.008;2022-08-03T15:37:36;31.40;1.00
8253;DHT22;61313;48.396;10.008;2022-08-03T15:40:03;31.40;1.00
8253;DHT22;61313;48.396;10.008;2022-08-03T15:42:29;31.40;1.00
8253;DHT22;61313;48.396;10.008;2022-08-03T15:44:56;31.50;1.00
8253;DHT22;61313;48.396;10.008;2022-08-03T15:47:21;31.60;1.00
8253;DHT22;61313;48.396;10.008;2022-08-03T15:49:47;31.50;1.00
8253;DHT22;61313;48.396;10.008;2022-08-03T15:52:13;31.40;1.00
8253;DHT22;61313;48.396;10.008;2022-08-03T15:54:38;31.40;1.00
8253;DHT22;61313;48.396;10.008;2022-08-03T15:57:04;31.50;1.00
8253;DHT22;61313;48.396;10.008;2022-08-03T15:59:30;31.50;1.00
8253;DHT22;61313;48.396;10.008;2022-08-03T16:01:56;31.40;1.00
8253;DHT22;61313;48.396;10.008;2022-08-03T16:04:22;31.40;1.00
8253;DHT22;61313;48.396;10.008;2022-08-03T16:06:48;31.40;1.00
8253;DHT22;61313;48.396;10.008;2022-08-03T16:09:14;31.50;1.00
8253;DHT22;61313;48.396;10.008;2022-08-03T16:11:39;31.50;1.00
8253;DHT22;61313;48.396;10.008;2022-08-03T16:14:05;31.50;1.00
8253;DHT22;61313;48.396;10.008;2022-08-03T16:16:31;31.60;1.00
8253;DHT22;61313;48.396;10.008;2022-08-03T16:18:56;31.60;1.00
8253;DHT22;61313;48.396;10.008;2022-08-03T16:21:22;31.60;1.00
8253;DHT22;61313;48.396;10.008;2022-08-03T16:23:48;31.60;1.00
8253;DHT22;61313;48.396;10.008;2022-08-03T16:26:14;31.50;1.00